Time;durP1;ratioP1;P1;durP2;ratioP2;P2;SDS_P1;SDS_P2;PMS_P1;PMS_P2;Temp;Humidity;BMP_temperature;BMP_pressure;BME280_temperature;BME280_humidity;BME280_pressure;Samples;Min_cycle;Max_cycle;Signal;HPM_P1;HPM_P2
2022/06/07 00:02:24;;;;;;;0.75;0.55;;;13.80;99.90;;;;;;5036499;28;20073;-57
2022/06/07 00:04:50;;;;;;;1.65;0.75;;;13.80;99.90;;;;;;5036542;28;20026;-55
2022/06/07 00:07:16;;;;;;;0.68;0.50;;;13.80;99.90;;;;;;5036970;28;20022;-53
2022/06/07 00:09:41;;;;;;;1.17;0.80;;;13.70;99.90;;;;;;5036389;28;20462;-53
2022/06/07 00:12:07;;;;;;;1.30;0.98;;;13.60;99.90;;;;;;5036397;28;20021;-55
2022/06/07 00:14:34;;;;;;;0.80;0.80;;;13.60;99.90;;;;;;5035066;28;20032;-54
2022/06/07 00:17:00;;;;;;;0.70;0.70;;;13.60;99.90;;;;;;5035049;28;20018;-58
2022/06/07 00:19:27;;;;;;;1.48;0.77;;;13.60;99.90;;;;;;5034971;28;20476;-56
2022/06/07 00:21:52;;;;;;;2.25;1.30;;;13.60;99.90;;;;;;5034815;28;20037;-56
2022/06/07 00:24:19;;;;;;;1.65;0.95;;;13.70;99.90;;;;;;5036222;28;20018;-56
2022/06/07 00:26:46;;;;;;;5.03;1.10;;;13.70;99.90;;;;;;5036385;28;20510;-55
2022/06/07 00:29:13;;;;;;;0.90;0.90;;;13.60;99.90;;;;;;5034824;28;20032;-54
2022/06/07 00:31:42;;;;;;;4.15;0.70;;;13.50;99.90;;;;;;5034518;28;20055;-55
2022/06/07 00:34:09;;;;;;;3.53;0.82;;;13.50;99.90;;;;;;5035032;28;20029;-53
2022/06/07 00:36:35;;;;;;;3.90;1.10;;;13.40;99.90;;;;;;5034804;28;20021;-52
2022/06/07 00:39:02;;;;;;;1.33;0.73;;;13.40;99.90;;;;;;5034581;28;20487;-56
2022/06/07 00:41:27;;;;;;;0.90;0.70;;;13.40;99.90;;;;;;5035863;28;20021;-56
2022/06/07 00:44:21;;;;;;;1.25;0.80;;;13.40;99.90;;;;;;5034416;28;20032;-52
2022/06/07 00:46:53;;;;;;;0.90;0.90;;;13.30;99.90;;;;;;5034506;28;20021;-53
2022/06/07 00:49:19;;;;;;;;;;;13.30;99.90;;;;;;5035164;28;20057;-55
2022/06/07 00:51:45;;;;;;;1.25;0.80;;;13.30;99.90;;;;;;5034486;28;19916;-51
2022/06/07 00:54:19;;;;;;;2.05;0.77;;;13.30;99.90;;;;;;5033626;28;20025;-54
2022/06/07 00:56:45;;;;;;;1.70;1.10;;;13.30;99.90;;;;;;5035373;28;20064;-52
2022/06/07 00:59:11;;;;;;;1.88;0.80;;;13.30;99.90;;;;;;5035504;28;20057;-56
2022/06/07 01:01:36;;;;;;;1.27;0.88;;;13.30;99.90;;;;;;5034639;28;20109;-57
2022/06/07 01:04:02;;;;;;;2.47;0.90;;;13.30;99.90;;;;;;5035449;28;20033;-55
2022/06/07 01:11:56;;;;;;;1.30;0.90;;;13.40;99.90;;;;;;5035485;28;20487;-52
2022/06/07 01:14:21;;;;;;;0.90;0.70;;;13.40;99.90;;;;;;5034696;28;20026;-55
2022/06/07 01:16:47;;;;;;;2.70;1.00;;;13.40;99.90;;;;;;5034313;28;20028;-54
2022/06/07 01:19:12;;;;;;;0.73;0.73;;;13.50;99.90;;;;;;5034219;28;20029;-53
2022/06/07 01:21:41;;;;;;;1.38;0.70;;;13.40;99.90;;;;;;5034170;28;20024;-51
2022/06/07 01:24:07;;;;;;;1.23;0.70;;;13.40;99.90;;;;;;5035169;28;20025;-57
2022/06/07 01:26:34;;;;;;;0.73;0.70;;;13.40;99.90;;;;;;5035080;28;20484;-55
2022/06/07 01:28:59;;;;;;;0.63;0.60;;;13.50;99.90;;;;;;5033747;28;20030;-52
2022/06/07 01:31:25;;;;;;;0.75;0.73;;;13.50;99.90;;;;;;5033879;28;20098;-52
2022/06/07 01:33:51;;;;;;;1.67;0.80;;;13.50;99.90;;;;;;5034782;28;20139;-56
2022/06/07 01:36:17;;;;;;;2.15;1.00;;;13.60;99.90;;;;;;5033900;28;20017;-55
2022/06/07 01:38:45;;;;;;;3.58;0.95;;;13.70;99.90;;;;;;5035289;28;20488;-55
2022/06/07 01:43:58;;;;;;;1.10;1.00;;;13.70;99.90;;;;;;5035063;28;20087;-56
2022/06/07 01:46:23;;;;;;;1.52;0.80;;;13.80;99.90;;;;;;5033979;28;20108;-53
2022/06/07 01:48:49;;;;;;;1.30;0.80;;;13.70;99.90;;;;;;5033405;28;20537;-55
2022/06/07 01:51:16;;;;;;;1.15;0.88;;;13.80;99.90;;;;;;5034985;28;20037;-57
2022/06/07 01:53:42;;;;;;;1.58;0.77;;;13.80;99.90;;;;;;5034430;28;20021;-57
2022/06/07 01:56:13;;;;;;;2.22;0.75;;;13.80;99.90;;;;;;5034435;28;20025;-56
2022/06/07 01:58:44;;;;;;;0.82;0.70;;;13.80;99.90;;;;;;5034734;28;20053;-52
2022/06/07 02:01:12;;;;;;;0.80;0.77;;;13.80;99.90;;;;;;5033225;28;20025;-55
2022/06/07 02:03:48;;;;;;;4.63;2.03;;;13.70;99.90;;;;;;5034417;28;20022;-53
2022/06/07 02:06:14;;;;;;;1.20;1.10;;;13.70;99.90;;;;;;5032534;28;20083;-57
2022/06/07 02:08:41;;;;;;;2.60;1.23;;;13.70;99.90;;;;;;5034179;28;20025;-54
2022/06/07 02:11:16;;;;;;;1.80;1.02;;;13.70;99.90;;;;;;5034208;28;20053;-55
2022/06/07 02:13:42;;;;;;;1.20;1.10;;;13.60;99.90;;;;;;5034012;28;20017;-56
2022/06/07 02:16:09;;;;;;;1.88;1.35;;;13.60;99.90;;;;;;5033171;28;20022;-51
2022/06/07 02:18:36;;;;;;;2.22;1.30;;;13.60;99.90;;;;;;5032831;28;20028;-51
2022/06/07 02:21:01;;;;;;;2.22;1.08;;;13.60;99.90;;;;;;5034060;28;20025;-51
2022/06/07 02:23:28;;;;;;;4.78;1.15;;;13.60;99.90;;;;;;5033926;28;20025;-53
2022/06/07 02:26:04;;;;;;;1.52;0.90;;;13.60;99.90;;;;;;5032635;28;20030;-51
2022/06/07 02:28:34;;;;;;;0.93;0.90;;;13.70;99.90;;;;;;5033984;28;20099;-56
2022/06/07 02:31:02;;;;;;;2.13;1.02;;;13.70;99.90;;;;;;5033740;28;20041;-55
2022/06/07 02:33:28;;;;;;;1.13;0.98;;;13.60;99.90;;;;;;5032307;28;20522;-55
2022/06/07 02:35:54;;;;;;;1.65;0.93;;;13.60;99.90;;;;;;5032863;28;20035;-52
2022/06/07 02:38:20;;;;;;;3.35;0.80;;;13.60;99.90;;;;;;5032325;28;20108;-51
2022/06/07 02:40:48;;;;;;;1.88;0.80;;;13.60;99.90;;;;;;5033564;28;20494;-55
2022/06/07 02:43:14;;;;;;;1.40;1.05;;;13.50;99.90;;;;;;5032170;28;20029;-54
2022/06/07 02:45:39;;;;;;;1.15;0.90;;;13.50;99.90;;;;;;5032633;28;20022;-51
2022/06/07 02:48:06;;;;;;;0.98;0.85;;;13.40;99.90;;;;;;5032295;28;20025;-55
2022/06/07 02:50:32;;;;;;;4.63;0.95;;;13.40;99.90;;;;;;5033536;28;20083;-53
2022/06/07 02:52:57;;;;;;;1.25;0.80;;;13.40;99.90;;;;;;5032345;28;20033;-56
2022/06/07 02:55:24;;;;;;;1.35;1.00;;;13.40;99.90;;;;;;5033510;28;20040;-53
2022/06/07 02:57:50;;;;;;;0.80;0.80;;;13.40;99.90;;;;;;5033353;28;20018;-51
2022/06/07 03:00:16;;;;;;;2.72;1.20;;;13.50;99.90;;;;;;5033393;28;20032;-54
2022/06/07 03:02:42;;;;;;;4.90;1.10;;;13.50;99.90;;;;;;5033438;28;20018;-56
2022/06/07 03:05:10;;;;;;;1.02;0.80;;;13.50;99.90;;;;;;5032038;28;20049;-54
2022/06/07 03:07:37;;;;;;;2.92;0.90;;;13.60;99.90;;;;;;5032212;28;20111;-54
2022/06/07 03:10:04;;;;;;;2.17;0.98;;;13.60;99.90;;;;;;5033057;28;20041;-56
2022/06/07 03:12:30;;;;;;;2.40;1.00;;;13.60;99.90;;;;;;5032960;28;20025;-54
2022/06/07 03:14:55;;;;;;;2.08;0.82;;;13.70;99.90;;;;;;5032915;28;20056;-53
2022/06/07 03:17:21;;;;;;;2.05;1.25;;;13.70;99.90;;;;;;5031527;28;20024;-56
2022/06/07 03:19:47;;;;;;;4.97;0.80;;;13.70;99.90;;;;;;5031480;28;20026;-54
2022/06/07 03:22:14;;;;;;;2.42;0.80;;;13.70;99.90;;;;;;5032951;28;20021;-54
2022/06/07 03:24:39;;;;;;;3.45;1.20;;;13.80;99.90;;;;;;5031694;28;20033;-58
2022/06/07 03:27:05;;;;;;;2.15;1.10;;;13.70;99.90;;;;;;5031715;28;20108;-53
2022/06/07 03:29:31;;;;;;;2.17;0.90;;;13.80;99.90;;;;;;5031718;28;20025;-52
2022/06/07 03:31:56;;;;;;;1.25;1.10;;;13.70;99.90;;;;;;5033069;28;20037;-55
2022/06/07 03:34:22;;;;;;;4.35;1.45;;;13.70;99.90;;;;;;5032206;28;20470;-57
2022/06/07 03:36:48;;;;;;;2.88;1.13;;;13.80;99.90;;;;;;5033146;28;20427;-51
2022/06/07 03:39:13;;;;;;;3.60;0.90;;;13.80;99.90;;;;;;5032873;28;20416;-55
2022/06/07 03:41:39;;;;;;;2.10;0.90;;;13.80;99.90;;;;;;5031592;28;20025;-56
2022/06/07 03:44:05;;;;;;;4.00;0.90;;;13.90;99.90;;;;;;5032777;28;20092;-55
2022/06/07 03:46:35;;;;;;;1.30;1.10;;;13.90;99.90;;;;;;5032871;28;20037;-53
2022/06/07 03:49:02;;;;;;;2.08;1.02;;;14.00;99.90;;;;;;5032775;28;20030;-54
2022/06/07 03:51:30;;;;;;;1.75;0.90;;;14.00;99.90;;;;;;5032737;28;20036;-54
2022/06/07 03:53:56;;;;;;;2.00;1.33;;;14.10;99.90;;;;;;5032554;28;20104;-55
2022/06/07 03:56:23;;;;;;;1.70;1.52;;;14.10;99.90;;;;;;5031517;28;20025;-51
2022/06/07 03:58:49;;;;;;;4.25;1.42;;;14.10;99.90;;;;;;5031704;28;20025;-54
2022/06/07 04:01:18;;;;;;;1.55;1.33;;;14.10;99.90;;;;;;5032633;28;20053;-55
2022/06/07 04:03:45;;;;;;;2.30;1.77;;;14.00;99.90;;;;;;5031217;28;20037;-53
2022/06/07 04:06:29;;;;;;;4.03;1.35;;;14.10;99.90;;;;;;5031316;28;20038;-54
2022/06/07 04:08:55;;;;;;;2.85;1.05;;;14.10;99.90;;;;;;5032808;28;20037;-54
2022/06/07 04:11:23;;;;;;;3.80;1.42;;;14.20;99.90;;;;;;5031928;28;20029;-52
2022/06/07 04:13:50;;;;;;;1.23;1.13;;;14.20;99.90;;;;;;5032388;28;20476;-54
2022/06/07 04:16:19;;;;;;;2.05;1.48;;;14.20;99.90;;;;;;5032596;28;20144;-51
2022/06/07 04:18:45;;;;;;;1.40;1.05;;;14.20;99.90;;;;;;5031474;28;20036;-55
2022/06/07 04:21:12;;;;;;;6.18;1.40;;;14.30;99.90;;;;;;5032357;28;20018;-54
2022/06/07 04:23:38;;;;;;;1.13;1.02;;;14.40;99.90;;;;;;5032423;28;20091;-54
2022/06/07 04:26:11;;;;;;;2.92;1.15;;;14.50;99.90;;;;;;5032425;28;20072;-54
2022/06/07 04:28:38;;;;;;;7.28;2.25;;;14.50;99.90;;;;;;5032579;28;20033;-56
2022/06/07 04:31:13;;;;;;;2.15;1.20;;;14.50;99.90;;;;;;5034862;28;20168;-52
2022/06/07 04:33:39;;;;;;;2.45;1.23;;;14.50;99.90;;;;;;5035107;28;20503;-53
2022/06/07 04:36:12;;;;;;;1.30;1.20;;;14.50;99.90;;;;;;5022357;28;20026;-55
2022/06/07 04:38:39;;;;;;;4.40;1.52;;;14.60;99.90;;;;;;5015363;28;20073;-55
2022/06/07 04:41:09;;;;;;;4.18;1.88;;;14.60;99.90;;;;;;5015280;28;20113;-56
2022/06/07 04:43:35;;;;;;;3.10;1.45;;;14.70;99.90;;;;;;5015207;28;20028;-54
2022/06/07 04:46:06;;;;;;;3.17;1.30;;;14.70;99.90;;;;;;5016688;28;20029;-58
2022/06/07 04:48:33;;;;;;;3.22;1.42;;;14.80;99.90;;;;;;5015065;28;20080;-52
2022/06/07 04:51:03;;;;;;;1.67;1.30;;;14.80;99.90;;;;;;5016375;28;20034;-52
2022/06/07 04:53:29;;;;;;;1.55;1.00;;;14.90;99.90;;;;;;5016188;28;20034;-57
2022/06/07 04:55:54;;;;;;;1.48;1.20;;;15.10;99.90;;;;;;5016365;28;20029;-56
2022/06/07 04:58:20;;;;;;;2.00;1.10;;;15.10;99.90;;;;;;5016256;28;20026;-55
2022/06/07 05:00:45;;;;;;;2.63;1.50;;;15.30;99.90;;;;;;5014927;28;20029;-56
2022/06/07 05:03:11;;;;;;;1.95;1.40;;;15.40;99.90;;;;;;5014865;28;20055;-57
2022/06/07 05:05:36;;;;;;;4.05;1.50;;;15.60;99.90;;;;;;5016056;28;20080;-55
2022/06/07 05:08:02;;;;;;;5.43;1.30;;;15.80;99.90;;;;;;5016090;28;20030;-55
2022/06/07 05:10:27;;;;;;;6.28;1.30;;;15.90;99.90;;;;;;5014949;28;20021;-51
2022/06/07 05:12:53;;;;;;;5.00;1.33;;;16.10;99.90;;;;;;5014607;28;20026;-52
2022/06/07 05:15:19;;;;;;;2.00;1.20;;;16.30;99.90;;;;;;5014687;28;20025;-54
2022/06/07 05:17:47;;;;;;;2.53;1.33;;;16.50;99.90;;;;;;5014594;28;20051;-53
2022/06/07 05:20:13;;;;;;;4.07;1.45;;;16.60;99.90;;;;;;5014609;28;20056;-52
2022/06/07 05:22:38;;;;;;;7.18;1.42;;;16.60;99.90;;;;;;5014724;28;20054;-55
2022/06/07 05:25:04;;;;;;;3.45;1.00;;;16.70;99.90;;;;;;5014498;28;20025;-53
2022/06/07 05:27:38;;;;;;;3.78;1.25;;;16.90;99.90;;;;;;5015563;28;20022;-55
2022/06/07 05:30:05;;;;;;;2.17;1.10;;;17.20;99.90;;;;;;5014538;28;20033;-56
2022/06/07 05:32:30;;;;;;;1.77;1.10;;;17.50;99.90;;;;;;5015083;28;20034;-56
2022/06/07 05:34:56;;;;;;;2.47;1.30;;;17.90;99.90;;;;;;5015591;28;20033;-55
2022/06/07 05:37:23;;;;;;;1.38;1.23;;;18.50;99.90;;;;;;5014315;28;20026;-55
2022/06/07 05:39:49;;;;;;;2.33;1.50;;;19.20;99.90;;;;;;5015089;28;20160;-51
2022/06/07 05:42:17;;;;;;;2.88;1.63;;;19.80;99.90;;;;;;5013800;28;20053;-56
2022/06/07 05:44:42;;;;;;;5.00;1.27;;;20.50;99.90;;;;;;5015179;28;20030;-55
2022/06/07 05:47:09;;;;;;;3.53;1.27;;;21.00;99.90;;;;;;5014486;28;20034;-56
2022/06/07 05:49:35;;;;;;;4.80;1.85;;;21.60;99.90;;;;;;5015545;28;20017;-55
2022/06/07 05:52:01;;;;;;;2.08;1.05;;;22.20;99.90;;;;;;5013939;28;20033;-56
2022/06/07 05:54:32;;;;;;;2.03;1.42;;;22.80;99.90;;;;;;5015153;28;20026;-57
2022/06/07 05:56:58;;;;;;;1.85;1.42;;;23.30;99.90;;;;;;5015202;28;20384;-56
2022/06/07 05:59:24;;;;;;;1.98;1.60;;;23.70;99.90;;;;;;5014859;28;20080;-54
2022/06/07 06:01:49;;;;;;;3.42;1.80;;;24.20;99.90;;;;;;5013743;28;20022;-57
2022/06/07 06:04:15;;;;;;;2.63;1.15;;;24.80;99.90;;;;;;5014888;28;20080;-56
2022/06/07 06:06:41;;;;;;;1.50;1.33;;;25.10;99.90;;;;;;5013738;28;20053;-55
2022/06/07 06:11:52;;;;;;;2.17;1.30;;;26.00;99.90;;;;;;5015308;28;20032;-57
2022/06/07 06:14:19;;;;;;;3.67;1.10;;;26.30;99.90;;;;;;5014749;28;20030;-56
2022/06/07 06:16:45;;;;;;;1.35;0.88;;;26.90;99.90;;;;;;5015081;28;20050;-55
2022/06/07 06:19:10;;;;;;;3.33;1.13;;;27.50;99.90;;;;;;5013921;28;20045;-57
2022/06/07 06:21:39;;;;;;;1.23;0.70;;;28.00;99.90;;;;;;5013363;28;20025;-57
2022/06/07 06:24:06;;;;;;;0.82;0.50;;;28.50;99.90;;;;;;5013492;28;20036;-57
2022/06/07 06:26:32;;;;;;;0.73;0.63;;;28.90;99.90;;;;;;5014675;28;20028;-53
2022/06/07 06:28:58;;;;;;;1.95;0.95;;;29.40;99.80;;;;;;5013303;28;20025;-55
2022/06/07 06:31:24;;;;;;;2.72;0.90;;;30.10;99.70;;;;;;5014456;28;20045;-52
2022/06/07 06:33:52;;;;;;;2.83;0.70;;;29.30;96.10;;;;;;5014369;28;20053;-57
2022/06/07 06:36:23;;;;;;;3.70;0.93;;;29.40;97.00;;;;;;5014583;28;20022;-54
2022/06/07 06:38:49;;;;;;;3.35;0.80;;;29.80;95.00;;;;;;5014341;28;20018;-58
2022/06/07 06:41:18;;;;;;;1.10;0.70;;;30.10;93.90;;;;;;5013161;28;20059;-56
2022/06/07 06:43:45;;;;;;;3.00;0.75;;;29.60;93.70;;;;;;5013255;28;20095;-55
2022/06/07 06:46:14;;;;;;;3.25;1.00;;;29.10;93.70;;;;;;5013390;28;20030;-52
2022/06/07 06:48:40;;;;;;;3.58;1.02;;;28.90;94.80;;;;;;5014269;28;20057;-54
2022/06/07 06:51:10;;;;;;;2.00;1.00;;;29.40;93.40;;;;;;5014211;28;20110;-50
2022/06/07 06:53:37;;;;;;;0.93;0.77;;;30.20;93.00;;;;;;5012850;28;20033;-54
2022/06/07 06:56:03;;;;;;;0.77;0.77;;;31.00;92.50;;;;;;5014660;28;20437;-54
2022/06/07 06:58:29;;;;;;;1.83;0.95;;;31.80;91.10;;;;;;5012782;28;20065;-54
2022/06/07 07:01:02;;;;;;;1.08;0.98;;;32.20;89.00;;;;;;5013065;28;20049;-51
2022/06/07 07:03:28;;;;;;;2.97;1.10;;;32.60;86.20;;;;;;5012982;28;20076;-55
2022/06/07 07:05:56;;;;;;;2.17;0.95;;;33.40;84.30;;;;;;5013966;28;20037;-50
2022/06/07 07:08:23;;;;;;;1.42;0.95;;;33.20;83.10;;;;;;5012724;28;20026;-55
2022/06/07 07:10:48;;;;;;;2.85;0.90;;;32.60;80.50;;;;;;5013917;28;20029;-53
2022/06/07 07:13:14;;;;;;;5.07;0.77;;;32.40;81.50;;;;;;5013703;28;20034;-52
2022/06/07 07:15:44;;;;;;;2.90;0.73;;;32.60;81.00;;;;;;5013762;28;20021;-56
2022/06/07 07:18:10;;;;;;;5.82;0.77;;;33.10;79.60;;;;;;5013438;28;20076;-54
2022/06/07 07:20:39;;;;;;;3.15;0.93;;;32.80;77.90;;;;;;5013848;28;20022;-55
2022/06/07 07:23:05;;;;;;;3.50;0.80;;;32.00;79.70;;;;;;5012436;28;20120;-55
2022/06/07 07:25:32;;;;;;;1.38;0.70;;;31.10;80.20;;;;;;5012409;28;20105;-57
2022/06/07 07:27:58;;;;;;;2.13;0.80;;;30.10;80.50;;;;;;5013678;28;20081;-55
2022/06/07 07:30:24;;;;;;;1.98;0.70;;;29.50;82.00;;;;;;5013721;28;20120;-55
2022/06/07 07:32:49;;;;;;;2.80;0.80;;;29.90;82.70;;;;;;5013548;28;20076;-54
2022/06/07 07:35:17;;;;;;;3.95;1.00;;;30.90;79.80;;;;;;5012324;28;20030;-54
2022/06/07 07:37:43;;;;;;;1.67;1.48;;;31.90;78.60;;;;;;5013463;28;20076;-55
2022/06/07 07:40:09;;;;;;;2.33;0.95;;;33.40;77.90;;;;;;5013488;28;20026;-56
2022/06/07 07:42:35;;;;;;;1.02;0.70;;;34.30;73.00;;;;;;5012217;28;20408;-57
2022/06/07 07:45:00;;;;;;;2.58;0.80;;;34.90;69.80;;;;;;5012355;28;20504;-57
2022/06/07 07:47:26;;;;;;;2.25;0.70;;;35.40;70.00;;;;;;5013507;28;20123;-55
2022/06/07 07:49:54;;;;;;;3.85;0.98;;;36.10;68.90;;;;;;5013817;28;20104;-57
2022/06/07 07:52:19;;;;;;;5.38;1.08;;;36.40;65.60;;;;;;5013715;28;20030;-58
2022/06/07 07:54:46;;;;;;;1.98;1.00;;;36.70;65.00;;;;;;5012491;28;20056;-52
2022/06/07 07:57:11;;;;;;;2.45;1.00;;;37.30;62.60;;;;;;5012199;28;20025;-54
2022/06/07 08:02:59;;;;;;;1.80;0.90;;;36.90;60.40;;;;;;5013549;28;20025;-54
2022/06/07 08:05:24;;;;;;;2.03;0.80;;;36.20;60.40;;;;;;5015042;28;20026;-57
2022/06/07 08:07:51;;;;;;;6.35;0.73;;;34.80;65.30;;;;;;5016058;28;20048;-58
2022/06/07 08:10:17;;;;;;;2.25;0.70;;;34.90;59.40;;;;;;5016015;28;20029;-58
2022/06/07 08:12:43;;;;;;;7.47;0.70;;;35.70;62.90;;;;;;5017364;28;20022;-60
2022/06/07 08:15:10;;;;;;;5.78;0.60;;;36.20;57.30;;;;;;5015680;28;20029;-56
2022/06/07 08:17:35;;;;;;;2.83;0.57;;;36.50;56.60;;;;;;5015832;28;20108;-59
2022/06/07 08:20:01;;;;;;;2.10;0.90;;;36.90;57.20;;;;;;5015816;28;20108;-56
2022/06/07 08:22:26;;;;;;;2.72;0.95;;;37.50;56.00;;;;;;5016664;28;20022;-58
2022/06/07 08:25:05;;;;;;;3.20;0.68;;;38.00;54.30;;;;;;5016672;28;20114;-54
2022/06/07 08:27:59;;;;;;;1.95;0.90;;;38.60;53.30;;;;;;5024480;28;20034;-53
2022/06/07 08:30:25;;;;;;;2.10;1.13;;;38.50;54.00;;;;;;5016941;28;20029;-54
2022/06/07 08:39:02;;;;;;;1.05;0.65;;;39.90;50.40;;;;;;5036679;28;20506;-54
2022/06/07 08:41:49;;;;;;;0.85;0.73;;;40.50;49.30;;;;;;5035329;28;20033;-56
2022/06/07 08:44:45;;;;;;;1.02;0.70;;;40.80;50.70;;;;;;5035540;28;20387;-57
2022/06/07 08:47:24;;;;;;;3.40;0.80;;;40.50;49.20;;;;;;5036130;28;20025;-53
2022/06/07 08:49:53;;;;;;;13.63;0.80;;;40.50;48.20;;;;;;5034952;28;20033;-56
2022/06/07 08:52:34;;;;;;;2.40;1.00;;;40.30;47.90;;;;;;5035942;28;20357;-53
2022/06/07 08:55:11;;;;;;;6.03;0.80;;;39.90;48.30;;;;;;5035040;28;20299;-55
2022/06/07 08:57:37;;;;;;;1.02;0.63;;;39.80;50.30;;;;;;5035066;28;20026;-51
2022/06/07 09:00:23;;;;;;;2.97;1.00;;;39.90;49.40;;;;;;5034823;28;20021;-56
2022/06/07 09:03:14;;;;;;;6.00;1.45;;;40.40;49.70;;;;;;5034509;28;20027;-55
2022/06/07 09:06:21;;;;;;;1.40;0.70;;;40.80;46.30;;;;;;5034912;28;20036;-50
2022/06/07 09:08:51;;;;;;;2.03;0.63;;;39.50;50.70;;;;;;5034599;28;20025;-52
2022/06/07 09:14:31;;;;;;;2.15;0.65;;;37.40;50.90;;;;;;5035652;28;20283;-49
2022/06/07 09:16:58;;;;;;;3.67;0.60;;;35.50;51.60;;;;;;5033142;28;20021;-48
2022/06/07 09:19:27;;;;;;;1.02;0.65;;;34.20;53.00;;;;;;5034592;28;20056;-47
2022/06/07 09:21:58;;;;;;;1.42;0.68;;;33.70;53.60;;;;;;5034471;28;20021;-54
2022/06/07 09:24:51;;;;;;;7.53;0.90;;;34.60;54.90;;;;;;5035625;28;20018;-52
2022/06/07 09:30:43;;;;;;;3.03;0.70;;;36.90;50.80;;;;;;5035686;28;20553;-56
2022/06/07 09:33:19;;;;;;;;;;;38.20;53.00;;;;;;5034431;28;20022;-50
2022/06/07 09:35:44;;;;;;;2.83;0.68;;;39.30;49.10;;;;;;5034153;28;19959;-53
2022/06/07 09:38:15;;;;;;;5.97;0.80;;;38.40;49.30;;;;;;5033742;28;20110;-48
2022/06/07 09:40:53;;;;;;;4.93;0.70;;;38.70;50.70;;;;;;5034144;28;20029;-48
2022/06/07 09:43:28;;;;;;;0.57;0.57;;;38.40;49.50;;;;;;5033910;28;20029;-54
2022/06/07 09:46:08;;;;;;;2.20;0.60;;;38.70;48.80;;;;;;5034080;28;20095;-55
2022/06/07 09:48:41;;;;;;;2.10;0.60;;;39.20;48.40;;;;;;5035028;28;20392;-56
2022/06/07 09:51:09;;;;;;;1.55;0.88;;;39.80;48.10;;;;;;5034960;28;20025;-56
2022/06/07 09:53:38;;;;;;;0.98;0.55;;;39.90;47.10;;;;;;5034813;28;20032;-53
2022/06/07 09:56:31;;;;;;;1.58;0.60;;;40.20;47.10;;;;;;5034897;28;20032;-52
2022/06/07 09:59:24;;;;;;;1.90;0.90;;;40.30;49.00;;;;;;5034886;28;20026;-55
2022/06/07 10:02:10;;;;;;;1.85;0.50;;;39.30;47.30;;;;;;5033653;28;20030;-52
2022/06/07 10:04:58;;;;;;;2.75;0.80;;;39.50;49.20;;;;;;5013629;28;20026;-56
2022/06/07 10:07:56;;;;;;;1.48;0.70;;;39.50;48.10;;;;;;5003230;28;20034;-57
2022/06/07 10:10:27;;;;;;;1.80;0.70;;;40.20;47.90;;;;;;5013648;28;20416;-54
2022/06/07 10:13:31;;;;;;;0.52;0.52;;;40.30;47.40;;;;;;5013888;28;20026;-52
2022/06/07 10:16:12;;;;;;;2.15;0.68;;;39.20;47.50;;;;;;5014805;28;20030;-50
2022/06/07 10:19:03;;;;;;;2.25;0.60;;;38.50;51.70;;;;;;5013836;28;20022;-48
2022/06/07 10:21:54;;;;;;;0.90;0.60;;;38.60;49.10;;;;;;5021284;28;20021;-51
2022/06/07 10:28:22;;;;;;;3.30;0.93;;;38.40;50.50;;;;;;5034335;28;20025;-50
2022/06/07 10:31:02;;;;;;;1.95;0.70;;;37.50;51.80;;;;;;5033030;28;20102;-48
2022/06/07 10:34:21;;;;;;;2.27;0.80;;;36.60;50.60;;;;;;5033185;28;20021;-51
2022/06/07 10:37:04;;;;;;;2.78;0.60;;;35.60;49.70;;;;;;5034220;28;20017;-50
2022/06/07 10:39:40;;;;;;;4.28;0.70;;;34.60;52.90;;;;;;5033026;28;20023;-47
2022/06/07 10:42:34;;;;;;;1.85;0.60;;;34.10;52.80;;;;;;5033944;28;20025;-48
2022/06/07 10:45:15;;;;;;;1.25;0.60;;;33.60;54.00;;;;;;5025631;28;20042;-47
2022/06/07 10:47:54;;;;;;;2.75;0.82;;;33.00;53.40;;;;;;5028087;28;20420;-49
2022/06/07 10:50:45;;;;;;;1.13;0.73;;;32.50;54.90;;;;;;5013254;28;20030;-50
2022/06/07 10:53:31;;;;;;;1.63;0.40;;;32.10;56.20;;;;;;5014657;28;20076;-48
2022/06/07 10:56:22;;;;;;;2.13;0.77;;;31.90;55.00;;;;;;5012680;28;20045;-48
2022/06/07 10:58:51;;;;;;;1.20;0.60;;;31.50;58.50;;;;;;5014042;28;20022;-47
2022/06/07 11:01:23;;;;;;;2.38;0.80;;;31.10;59.10;;;;;;5019302;28;20028;-50
2022/06/07 11:04:10;;;;;;;1.27;0.60;;;31.10;55.80;;;;;;5032657;28;20067;-47
2022/06/07 11:09:41;;;;;;;3.53;0.77;;;31.20;57.70;;;;;;5033750;28;20028;-48
2022/06/07 11:12:11;;;;;;;2.50;0.93;;;31.00;56.20;;;;;;5024941;28;20026;-47
2022/06/07 11:15:01;;;;;;;0.75;0.47;;;30.80;59.10;;;;;;5030785;28;20026;-48
2022/06/07 11:18:18;;;;;;;3.10;0.57;;;30.60;58.50;;;;;;5033478;28;20034;-47
2022/06/07 11:20:51;;;;;;;1.13;0.73;;;30.40;58.00;;;;;;5033249;28;20028;-49
2022/06/07 11:23:25;;;;;;;2.55;0.57;;;30.10;59.00;;;;;;5032490;28;20071;-52
2022/06/07 11:26:14;;;;;;;4.40;0.60;;;30.10;62.00;;;;;;5032288;28;20025;-53
2022/06/07 11:28:39;;;;;;;1.88;0.47;;;30.30;61.20;;;;;;5033219;28;20542;-50
2022/06/07 11:31:23;;;;;;;2.15;0.40;;;30.30;61.90;;;;;;5031980;28;20041;-47
2022/06/07 11:33:52;;;;;;;1.08;0.50;;;30.20;61.70;;;;;;5031575;28;20029;-47
2022/06/07 11:36:55;;;;;;;0.63;0.35;;;30.10;59.60;;;;;;5033099;28;20495;-47
2022/06/07 11:39:36;;;;;;;1.85;0.70;;;30.10;59.80;;;;;;5032611;28;20039;-52
2022/06/07 11:42:07;;;;;;;2.50;0.50;;;30.00;60.60;;;;;;5033325;28;20022;-50
2022/06/07 11:44:57;;;;;;;1.48;0.57;;;29.90;61.20;;;;;;5033160;28;20036;-49
2022/06/07 11:47:26;;;;;;;3.50;0.50;;;29.70;60.40;;;;;;5035228;28;20029;-48
2022/06/07 11:49:59;;;;;;;3.60;0.60;;;29.70;61.90;;;;;;5035880;28;20021;-51
2022/06/07 11:52:33;;;;;;;0.85;0.40;;;29.60;60.50;;;;;;5035610;28;20032;-53
2022/06/07 11:55:08;;;;;;;2.58;0.60;;;29.80;61.50;;;;;;5034838;28;20045;-53
2022/06/07 11:57:54;;;;;;;0.82;0.80;;;29.80;61.10;;;;;;5029563;28;20029;-52
2022/06/07 12:00:32;;;;;;;1.92;0.50;;;29.90;60.60;;;;;;5014637;28;20104;-54
2022/06/07 12:02:57;;;;;;;0.65;0.40;;;29.90;61.80;;;;;;5013494;28;20161;-47
2022/06/07 12:05:30;;;;;;;1.38;0.75;;;30.20;60.40;;;;;;5011978;28;20146;-47
2022/06/07 12:08:13;;;;;;;3.50;0.68;;;30.10;60.60;;;;;;5017484;28;20025;-49
2022/06/07 12:14:15;;;;;;;2.30;0.40;;;30.10;62.50;;;;;;5013137;28;20044;-49
2022/06/07 12:17:00;;;;;;;0.85;0.52;;;30.10;60.20;;;;;;5028308;28;20021;-47
2022/06/07 12:19:30;;;;;;;2.08;0.60;;;30.00;63.10;;;;;;5013091;28;20018;-48
2022/06/07 12:22:05;;;;;;;3.47;0.80;;;30.00;62.00;;;;;;5023044;28;20026;-53
2022/06/07 12:27:56;;;;;;;0.40;0.40;;;30.10;62.50;;;;;;5013318;28;20041;-48
2022/06/07 12:30:27;;;;;;;4.57;0.70;;;30.20;62.60;;;;;;5014331;28;20037;-51
2022/06/07 12:32:54;;;;;;;1.98;0.73;;;30.10;61.70;;;;;;5031310;28;20546;-48
2022/06/07 12:35:27;;;;;;;0.70;0.55;;;30.10;64.00;;;;;;5032912;28;20033;-48
2022/06/07 12:38:00;;;;;;;1.85;0.40;;;30.00;65.00;;;;;;5022668;28;20018;-48
2022/06/07 12:40:28;;;;;;;0.93;0.52;;;30.00;63.40;;;;;;5030768;28;20029;-48
2022/06/07 12:42:54;;;;;;;1.58;0.50;;;30.10;62.60;;;;;;5031698;28;20021;-50
2022/06/07 12:45:21;;;;;;;0.80;0.60;;;30.00;62.60;;;;;;5030425;28;20022;-47
2022/06/07 12:47:57;;;;;;;2.47;0.40;;;30.10;60.60;;;;;;5032623;28;20097;-53
2022/06/07 12:50:33;;;;;;;1.00;0.40;;;30.20;61.50;;;;;;5025243;28;20427;-49
2022/06/07 12:52:59;;;;;;;0.93;0.38;;;30.00;60.50;;;;;;5035059;28;20026;-49
2022/06/07 12:55:32;;;;;;;0.77;0.50;;;29.80;61.90;;;;;;5034871;28;20030;-52
2022/06/07 12:58:04;;;;;;;2.35;0.50;;;29.90;63.90;;;;;;5036001;28;20021;-48
2022/06/07 13:00:39;;;;;;;1.65;0.75;;;29.90;62.90;;;;;;5034985;28;20075;-49
2022/06/07 13:03:20;;;;;;;1.60;1.00;;;29.90;63.90;;;;;;5035946;28;20136;-50
2022/06/07 13:05:50;;;;;;;3.13;0.60;;;29.90;62.60;;;;;;5035990;28;20025;-53
2022/06/07 13:08:21;;;;;;;1.10;0.40;;;29.80;62.00;;;;;;5034866;28;20087;-48
2022/06/07 13:10:47;;;;;;;6.22;0.68;;;29.80;62.00;;;;;;5034593;28;20043;-51
2022/06/07 13:14:08;;;;;;;1.45;0.50;;;29.60;62.80;;;;;;5035980;28;20124;-50
2022/06/07 13:16:39;;;;;;;4.68;0.70;;;29.40;62.50;;;;;;5034428;28;20033;-51
2022/06/07 13:19:13;;;;;;;1.25;0.43;;;29.20;64.30;;;;;;5034684;28;20047;-50
2022/06/07 13:21:49;;;;;;;1.25;0.50;;;29.10;64.50;;;;;;5034543;28;20029;-47
2022/06/07 13:24:25;;;;;;;1.33;0.70;;;29.20;62.90;;;;;;5034474;28;20464;-48
2022/06/07 13:27:02;;;;;;;1.17;0.50;;;29.20;63.20;;;;;;5034183;28;20030;-51
2022/06/07 13:29:34;;;;;;;0.63;0.40;;;29.30;62.90;;;;;;5034237;28;20033;-52
2022/06/07 13:32:03;;;;;;;0.60;0.40;;;29.10;63.40;;;;;;5034347;28;20041;-52
2022/06/07 13:34:28;;;;;;;0.40;0.40;;;29.00;63.90;;;;;;5034055;28;20021;-48
2022/06/07 13:37:19;;;;;;;2.30;0.50;;;28.90;63.00;;;;;;5035343;28;20024;-50
2022/06/07 13:39:59;;;;;;;1.25;0.55;;;29.00;64.70;;;;;;5034099;28;20030;-47
2022/06/07 13:42:41;;;;;;;0.65;0.65;;;28.90;64.30;;;;;;5034284;28;20112;-47
2022/06/07 13:45:26;;;;;;;1.35;0.52;;;28.70;63.10;;;;;;5034200;28;20423;-50
2022/06/07 13:48:01;;;;;;;0.77;0.73;;;28.50;62.50;;;;;;5034235;28;20026;-46
2022/06/07 13:53:27;;;;;;;1.35;0.50;;;28.60;65.40;;;;;;5034113;28;20040;-48